Time;durP1;ratioP1;P1;durP2;ratioP2;P2;SDS_P1;SDS_P2;PMS_P1;PMS_P2;Temp;Humidity;BMP_temperature;BMP_pressure;BME280_temperature;BME280_humidity;BME280_pressure;Samples;Min_cycle;Max_cycle;Signal;HPM_P1;HPM_P2
2021/11/17 10:21:29;;;;;;;0.82;0.82;;;;;;;;;;7369701;19;133846;-12
2021/11/17 10:24:06;;;;;;;1.20;1.20;;;;;;;;;;7363526;19;153773;-14
2021/11/17 10:26:47;;;;;;;0.80;0.80;;;;;;;;;;7366088;19;161820;-15
2021/11/17 10:29:31;;;;;;;1.38;0.93;;;;;;;;;;7366347;19;162521;-12
2021/11/17 10:32:08;;;;;;;0.82;0.82;;;;;;;;;;7365802;19;153877;-15
2021/11/17 10:34:51;;;;;;;0.90;0.90;;;;;;;;;;7366776;19;153611;-13
2021/11/17 10:37:33;;;;;;;0.90;0.90;;;;;;;;;;7367928;19;161798;-12
2021/11/17 10:40:15;;;;;;;0.70;0.70;;;;;;;;;;7365321;19;162473;-13
2021/11/17 10:42:48;;;;;;;0.70;0.70;;;;;;;;;;7365568;19;154328;-14
2021/11/17 10:45:30;;;;;;;0.80;0.80;;;;;;;;;;7367932;19;153661;-11
2021/11/17 10:48:02;;;;;;;0.90;0.90;;;;;;;;;;7364652;19;161895;-13
2021/11/17 10:50:37;;;;;;;0.80;0.80;;;;;;;;;;7364584;19;162358;-13
2021/11/17 10:53:14;;;;;;;0.88;0.88;;;;;;;;;;7367412;19;154065;-13
2021/11/17 10:55:50;;;;;;;0.93;0.90;;;;;;;;;;7364370;19;153676;-14
2021/11/17 10:58:24;;;;;;;1.02;0.90;;;;;;;;;;7365384;19;161904;-14
2021/11/17 11:00:58;;;;;;;0.82;0.82;;;;;;;;;;7365150;19;162435;-15
2021/11/17 11:03:33;;;;;;;0.82;0.82;;;;;;;;;;7366401;19;154072;-14
2021/11/17 11:06:10;;;;;;;2.03;0.85;;;;;;;;;;7364886;19;154697;-13
2021/11/17 11:08:50;;;;;;;0.80;0.80;;;;;;;;;;7364627;19;162171;-12
2021/11/17 11:11:23;;;;;;;0.90;0.90;;;;;;;;;;7366467;19;162458;-13
2021/11/17 11:13:59;;;;;;;0.95;0.88;;;;;;;;;;7362446;19;154068;-12
2021/11/17 11:16:33;;;;;;;0.65;0.65;;;;;;;;;;7364587;19;153485;-13
2021/11/17 11:19:32;;;;;;;0.70;0.70;;;;;;;;;;7364881;19;161870;-14
2021/11/17 11:22:11;;;;;;;0.60;0.60;;;;;;;;;;7335729;19;162536;-11
2021/11/17 11:24:49;;;;;;;0.60;0.60;;;;;;;;;;7337465;19;154063;-13
2021/11/17 11:27:28;;;;;;;0.80;0.80;;;;;;;;;;7333207;19;153568;-14
2021/11/17 11:30:29;;;;;;;0.70;0.70;;;;;;;;;;7329372;19;161860;-13
2021/11/17 11:33:20;;;;;;;0.73;0.63;;;;;;;;;;7330382;19;162321;-12
2021/11/17 11:36:21;;;;;;;0.80;0.80;;;;;;;;;;7338692;19;155025;-13
2021/11/17 11:38:54;;;;;;;0.63;0.63;;;;;;;;;;7333400;19;153573;-13
2021/11/17 11:41:39;;;;;;;0.80;0.80;;;;;;;;;;7333550;19;161930;-14
2021/11/17 11:44:28;;;;;;;0.70;0.70;;;;;;;;;;7333625;19;162342;-13
2021/11/17 11:47:33;;;;;;;1.10;0.75;;;;;;;;;;7333612;19;154737;-13
2021/11/17 11:50:26;;;;;;;0.60;0.60;;;;;;;;;;7332663;19;153544;-12
2021/11/17 11:53:03;;;;;;;0.70;0.70;;;;;;;;;;7335958;19;161851;-13
2021/11/17 11:56:03;;;;;;;0.57;0.57;;;;;;;;;;7337445;19;162159;-15
2021/11/17 11:58:41;;;;;;;0.70;0.70;;;;;;;;;;7335963;19;154113;-12
2021/11/17 12:01:20;;;;;;;0.60;0.60;;;;;;;;;;7333388;19;153587;-15
2021/11/17 12:03:56;;;;;;;0.60;0.60;;;;;;;;;;7331611;19;162146;-15
2021/11/17 12:06:32;;;;;;;0.60;0.60;;;;;;;;;;7335082;19;162414;-13
2021/11/17 12:09:10;;;;;;;0.60;0.60;;;;;;;;;;7333300;19;153957;-13
2021/11/17 12:11:50;;;;;;;0.70;0.70;;;;;;;;;;7329834;19;153525;-12
2021/11/17 12:14:35;;;;;;;0.60;0.60;;;;;;;;;;7334413;19;161867;-14
2021/11/17 12:17:08;;;;;;;0.60;0.60;;;;;;;;;;7334031;19;162723;-14
2021/11/17 12:19:48;;;;;;;;;;;;;;;;;;7332209;19;154310;-12
2021/11/17 12:22:38;;;;;;;0.55;0.55;;;;;;;;;;7331951;19;153395;-13
2021/11/17 12:25:19;;;;;;;0.60;0.60;;;;;;;;;;7331323;19;161928;-13
2021/11/17 12:27:58;;;;;;;0.65;0.65;;;;;;;;;;7333395;19;163879;-12
2021/11/17 12:30:42;;;;;;;0.68;0.68;;;;;;;;;;7330878;19;154451;-12
2021/11/17 12:33:18;;;;;;;0.60;0.60;;;;;;;;;;7330662;19;153724;-13
2021/11/17 12:36:18;;;;;;;0.60;0.60;;;;;;;;;;7331770;19;161962;-14
2021/11/17 12:38:51;;;;;;;0.50;0.50;;;;;;;;;;7332106;19;162310;-12
2021/11/17 12:41:28;;;;;;;0.65;0.60;;;;;;;;;;7336152;19;154097;-12
2021/11/17 12:44:03;;;;;;;0.50;0.50;;;;;;;;;;7331386;19;154278;-14
2021/11/17 12:46:50;;;;;;;0.98;0.57;;;;;;;;;;7329588;19;161958;-13
2021/11/17 12:49:25;;;;;;;0.68;0.60;;;;;;;;;;7331251;19;162452;-12
2021/11/17 12:52:01;;;;;;;0.70;0.70;;;;;;;;;;7329495;19;153933;-11
2021/11/17 12:54:34;;;;;;;0.90;0.70;;;;;;;;;;7331571;19;153543;-12
2021/11/17 12:57:10;;;;;;;0.50;0.50;;;;;;;;;;7331683;19;162226;-14
2021/11/17 12:59:44;;;;;;;0.43;0.43;;;;;;;;;;7335789;19;162721;-14
2021/11/17 13:02:38;;;;;;;0.43;0.43;;;;;;;;;;7331522;19;153917;-12
2021/11/17 13:05:26;;;;;;;0.95;0.80;;;;;;;;;;7331170;19;153660;-16
2021/11/17 13:08:01;;;;;;;0.60;0.60;;;;;;;;;;7330125;19;161920;-13
2021/11/17 13:10:38;;;;;;;0.43;0.43;;;;;;;;;;7330042;19;162404;-13
2021/11/17 13:13:16;;;;;;;0.60;0.60;;;;;;;;;;7331767;19;154131;-13
2021/11/17 13:15:57;;;;;;;0.50;0.50;;;;;;;;;;7333857;19;153764;-12
2021/11/17 13:18:34;;;;;;;0.63;0.63;;;;;;;;;;7332694;19;161869;-12
2021/11/17 13:21:15;;;;;;;0.60;0.60;;;;;;;;;;7330599;19;162426;-16
2021/11/17 13:23:50;;;;;;;0.70;0.70;;;;;;;;;;7333348;19;153956;-15
2021/11/17 13:26:31;;;;;;;0.60;0.60;;;;;;;;;;7333880;19;153494;-16
2021/11/17 13:29:22;;;;;;;0.73;0.63;;;;;;;;;;7330826;19;162071;-13
2021/11/17 13:31:56;;;;;;;0.70;0.70;;;;;;;;;;7329409;19;162461;-14
2021/11/17 13:34:39;;;;;;;0.85;0.75;;;;;;;;;;7333171;19;154188;-12
2021/11/17 13:37:35;;;;;;;0.60;0.60;;;;;;;;;;7333376;19;153561;-15
2021/11/17 13:40:10;;;;;;;0.50;0.50;;;;;;;;;;7329150;19;162361;-16
2021/11/17 13:42:42;;;;;;;0.70;0.52;;;;;;;;;;7332430;19;162361;-14
2021/11/17 13:45:19;;;;;;;1.48;0.75;;;;;;;;;;7332834;19;153942;-16
2021/11/17 13:47:50;;;;;;;0.80;0.80;;;;;;;;;;7330627;19;153576;-16
2021/11/17 13:50:28;;;;;;;0.65;0.65;;;;;;;;;;7332475;19;161954;-15
2021/11/17 13:53:00;;;;;;;0.68;0.68;;;;;;;;;;7329724;19;162529;-14
2021/11/17 13:55:34;;;;;;;0.55;0.55;;;;;;;;;;7332305;19;154069;-15
2021/11/17 13:58:06;;;;;;;0.70;0.70;;;;;;;;;;7333267;19;153566;-12
2021/11/17 14:00:42;;;;;;;1.50;0.80;;;;;;;;;;7331994;19;161901;-14
2021/11/17 14:03:14;;;;;;;2.00;1.42;;;;;;;;;;7331578;19;162476;-14
2021/11/17 14:05:49;;;;;;;2.10;1.90;;;;;;;;;;7330761;19;153915;-13
2021/11/17 14:08:22;;;;;;;2.60;2.40;;;;;;;;;;7332326;19;153890;-13
2021/11/17 14:10:53;;;;;;;3.47;3.17;;;;;;;;;;7327853;19;161892;-14
2021/11/17 14:13:26;;;;;;;6.60;6.00;;;;;;;;;;7327213;19;162495;-16
2021/11/17 14:15:58;;;;;;;7.88;6.97;;;;;;;;;;7330346;19;153931;-13
2021/11/17 14:18:31;;;;;;;6.78;6.18;;;;;;;;;;7326933;19;153570;-13
2021/11/17 14:21:07;;;;;;;9.45;6.32;;;;;;;;;;7327475;19;162367;-17
2021/11/17 14:23:39;;;;;;;4.95;4.55;;;;;;;;;;7332873;19;162652;-12
2021/11/17 14:26:13;;;;;;;4.82;4.43;;;;;;;;;;7328750;19;153961;-14
2021/11/17 14:28:48;;;;;;;5.00;4.57;;;;;;;;;;7333213;19;153604;-13
2021/11/17 14:31:24;;;;;;;4.45;4.05;;;;;;;;;;7327173;19;161842;-13
2021/11/17 14:34:00;;;;;;;5.40;4.57;;;;;;;;;;7326831;19;162399;-14
2021/11/17 14:36:43;;;;;;;4.05;3.75;;;;;;;;;;7328855;19;154006;-13
2021/11/17 14:39:16;;;;;;;4.40;4.00;;;;;;;;;;7328886;19;153690;-14
2021/11/17 14:41:48;;;;;;;3.92;3.63;;;;;;;;;;7328077;19;162120;-14
2021/11/17 14:44:20;;;;;;;4.65;4.25;;;;;;;;;;7328230;19;162737;-13
2021/11/17 14:46:51;;;;;;;4.43;4.03;;;;;;;;;;7328412;19;154153;-13
2021/11/17 14:49:23;;;;;;;4.80;4.40;;;;;;;;;;7328557;19;153687;-12
2021/11/17 14:51:57;;;;;;;4.38;3.80;;;;;;;;;;7327451;19;161809;-13
2021/11/17 14:54:28;;;;;;;4.53;3.90;;;;;;;;;;7327825;19;162604;-13
2021/11/17 14:57:00;;;;;;;3.97;3.67;;;;;;;;;;7333005;19;153988;-11
2021/11/17 14:59:31;;;;;;;4.03;3.72;;;;;;;;;;7335195;19;153557;-15
2021/11/17 15:02:03;;;;;;;5.05;3.88;;;;;;;;;;7334490;19;161997;-15
2021/11/17 15:04:35;;;;;;;4.03;3.73;;;;;;;;;;7334396;19;162406;-15
2021/11/17 15:07:13;;;;;;;3.97;3.70;;;;;;;;;;7333595;19;154077;-13
2021/11/17 15:09:45;;;;;;;4.18;3.88;;;;;;;;;;7334606;19;153493;-15
2021/11/17 15:12:19;;;;;;;4.07;3.78;;;;;;;;;;7333199;19;161823;-13
2021/11/17 15:14:51;;;;;;;4.03;3.72;;;;;;;;;;7334294;19;162458;-15
2021/11/17 15:17:22;;;;;;;3.92;3.63;;;;;;;;;;7334401;19;153948;-14
2021/11/17 15:19:54;;;;;;;4.00;3.60;;;;;;;;;;7332943;19;153812;-15
2021/11/17 15:22:28;;;;;;;3.97;3.67;;;;;;;;;;7334112;19;161874;-15
2021/11/17 15:24:59;;;;;;;3.40;3.20;;;;;;;;;;7334056;19;162518;-14
2021/11/17 15:27:40;;;;;;;3.88;3.58;;;;;;;;;;7334270;19;154146;-15
2021/11/17 15:30:14;;;;;;;3.70;3.40;;;;;;;;;;7334123;19;154248;-14
2021/11/17 15:32:46;;;;;;;3.80;3.50;;;;;;;;;;7332794;19;161601;-15
2021/11/17 15:35:19;;;;;;;3.80;3.50;;;;;;;;;;7333556;19;162531;-14
2021/11/17 15:37:53;;;;;;;3.58;3.30;;;;;;;;;;7334010;19;154419;-16
2021/11/17 15:40:28;;;;;;;3.60;3.30;;;;;;;;;;7333991;19;153669;-14
2021/11/17 15:43:00;;;;;;;3.60;3.30;;;;;;;;;;7333560;19;161597;-14
2021/11/17 15:45:33;;;;;;;3.28;3.08;;;;;;;;;;7333465;19;162438;-14
2021/11/17 15:48:05;;;;;;;3.10;2.90;;;;;;;;;;7334122;19;154115;-16
2021/11/17 15:50:40;;;;;;;3.50;3.30;;;;;;;;;;7333891;19;153492;-14
2021/11/17 15:53:14;;;;;;;3.58;3.30;;;;;;;;;;7332072;19;162576;-15
2021/11/17 15:55:46;;;;;;;3.90;3.60;;;;;;;;;;7332180;19;162430;-14
2021/11/17 15:58:18;;;;;;;3.20;3.00;;;;;;;;;;7333596;19;154125;-16
2021/11/17 16:00:51;;;;;;;3.47;3.17;;;;;;;;;;7333330;19;153630;-14
2021/11/17 16:03:23;;;;;;;3.28;3.08;;;;;;;;;;7333007;19;161985;-13
2021/11/17 16:05:54;;;;;;;3.90;3.60;;;;;;;;;;7332922;19;162364;-13
2021/11/17 16:08:28;;;;;;;3.15;2.95;;;;;;;;;;7332893;19;153947;-11
2021/11/17 16:11:00;;;;;;;3.35;3.05;;;;;;;;;;7333237;19;153481;-16
2021/11/17 16:13:31;;;;;;;3.20;3.00;;;;;;;;;;7330227;19;161884;-15
2021/11/17 16:16:03;;;;;;;3.13;2.92;;;;;;;;;;7332673;19;162384;-15
2021/11/17 16:18:35;;;;;;;3.00;2.80;;;;;;;;;;7332820;19;154937;-15
2021/11/17 16:21:09;;;;;;;3.10;2.90;;;;;;;;;;7328776;19;153755;-16
2021/11/17 16:26:34;;;;;;;3.35;3.13;;;;;;;;;;7332385;19;162453;-15
2021/11/17 16:29:06;;;;;;;3.08;2.88;;;;;;;;;;7332818;19;154085;-21
2021/11/17 16:31:39;;;;;;;3.40;3.10;;;;;;;;;;7332607;19;153659;-14
2021/11/17 16:34:12;;;;;;;3.03;2.83;;;;;;;;;;7330333;19;161953;-13
2021/11/17 16:36:47;;;;;;;3.03;2.83;;;;;;;;;;7330952;19;162690;-13
2021/11/17 16:39:23;;;;;;;3.33;3.00;;;;;;;;;;7332330;19;154006;-13
2021/11/17 16:41:55;;;;;;;2.80;2.60;;;;;;;;;;7332526;19;153845;-13
2021/11/17 16:44:26;;;;;;;3.25;3.03;;;;;;;;;;7332049;19;161861;-13
2021/11/17 16:46:58;;;;;;;3.05;2.85;;;;;;;;;;7331937;19;162352;-12
2021/11/17 16:49:29;;;;;;;3.03;2.83;;;;;;;;;;7331728;19;154080;-13
2021/11/17 16:52:14;;;;;;;2.92;2.72;;;;;;;;;;7331765;19;153843;-14
2021/11/17 16:54:54;;;;;;;2.80;2.60;;;;;;;;;;7329134;19;161782;-15
2021/11/17 16:57:27;;;;;;;2.78;2.58;;;;;;;;;;7330673;19;162399;-14
2021/11/17 16:59:58;;;;;;;2.85;2.65;;;;;;;;;;7331090;19;154163;-14
2021/11/17 17:02:31;;;;;;;3.10;2.90;;;;;;;;;;7331121;19;153606;-13
2021/11/17 17:05:02;;;;;;;3.35;3.15;;;;;;;;;;7330788;19;162412;-14
2021/11/17 17:07:37;;;;;;;3.00;2.80;;;;;;;;;;7330712;19;162484;-13
2021/11/17 17:10:13;;;;;;;2.90;2.60;;;;;;;;;;7329802;19;154549;-15
2021/11/17 17:12:48;;;;;;;2.78;2.55;;;;;;;;;;7330800;19;153533;-13
2021/11/17 17:15:22;;;;;;;3.03;2.83;;;;;;;;;;7327905;19;161891;-14
2021/11/17 17:17:54;;;;;;;2.50;2.40;;;;;;;;;;7330248;19;162437;-14
2021/11/17 17:20:29;;;;;;;2.67;2.47;;;;;;;;;;7327779;19;153732;-14
2021/11/17 17:23:02;;;;;;;2.55;2.45;;;;;;;;;;7330729;19;153843;-15
2021/11/17 17:25:36;;;;;;;2.87;2.67;;;;;;;;;;7330295;19;161758;-15
2021/11/17 17:28:09;;;;;;;2.38;2.28;;;;;;;;;;7329933;19;162374;-13
2021/11/17 17:30:41;;;;;;;2.90;2.70;;;;;;;;;;7330514;19;153978;-13
2021/11/17 17:33:13;;;;;;;2.60;2.40;;;;;;;;;;7330225;19;153581;-13
2021/11/17 17:35:45;;;;;;;2.80;2.60;;;;;;;;;;7326141;19;161870;-14
2021/11/17 17:38:17;;;;;;;2.30;2.20;;;;;;;;;;7329718;19;162654;-13
2021/11/17 17:40:52;;;;;;;2.40;2.30;;;;;;;;;;7330136;19;153934;-13
2021/11/17 17:43:24;;;;;;;2.33;2.22;;;;;;;;;;7329379;19;153582;-13
2021/11/17 17:45:57;;;;;;;2.90;2.70;;;;;;;;;;7329898;19;162026;-12
2021/11/17 17:48:29;;;;;;;2.70;2.50;;;;;;;;;;7329256;19;162676;-12
2021/11/17 17:51:01;;;;;;;2.60;2.40;;;;;;;;;;7329821;19;154028;-12
2021/11/17 17:53:34;;;;;;;2.75;2.55;;;;;;;;;;7328491;19;154152;-14
2021/11/17 17:56:10;;;;;;;2.80;2.60;;;;;;;;;;7329526;19;161882;-12
2021/11/17 17:58:42;;;;;;;2.47;2.28;;;;;;;;;;7329370;19;161965;-13
2021/11/17 18:01:15;;;;;;;2.90;2.70;;;;;;;;;;7329816;19;153996;-12
2021/11/17 18:03:46;;;;;;;;;;;;;;;;;;7330211;19;153515;-12
2021/11/17 18:06:19;;;;;;;2.17;2.08;;;;;;;;;;7329101;19;161771;-13
2021/11/17 18:08:51;;;;;;;2.90;2.70;;;;;;;;;;7328907;19;162375;-14
2021/11/17 18:11:26;;;;;;;2.25;2.15;;;;;;;;;;7329261;19;153724;-13
2021/11/17 18:13:57;;;;;;;2.22;2.13;;;;;;;;;;7328751;19;153717;-13
2021/11/17 18:16:29;;;;;;;2.30;2.20;;;;;;;;;;7327732;19;161830;-14
2021/11/17 18:19:01;;;;;;;2.40;2.30;;;;;;;;;;7328315;19;162190;-12
2021/11/17 18:21:33;;;;;;;1.98;1.88;;;;;;;;;;7329117;19;154012;-13
2021/11/17 18:24:04;;;;;;;2.22;2.13;;;;;;;;;;7328739;19;153655;-12
2021/11/17 18:26:44;;;;;;;1.95;1.85;;;;;;;;;;7328536;19;161920;-13
2021/11/17 18:29:16;;;;;;;2.20;2.10;;;;;;;;;;7327266;19;162418;-13
2021/11/17 18:31:48;;;;;;;2.22;2.13;;;;;;;;;;7333156;19;154203;-13
2021/11/17 18:34:19;;;;;;;2.30;2.20;;;;;;;;;;7334953;19;153528;-15
2021/11/17 18:36:53;;;;;;;2.30;2.20;;;;;;;;;;7334833;19;161853;-12
2021/11/17 18:39:24;;;;;;;;;;;;;;;;;;7335449;19;162405;-12
2021/11/17 18:42:05;;;;;;;2.10;2.00;;;;;;;;;;7335386;19;154153;-14
2021/11/17 18:44:37;;;;;;;2.10;2.00;;;;;;;;;;7335226;19;153654;-14
2021/11/17 18:47:08;;;;;;;2.17;2.08;;;;;;;;;;7334655;19;161823;-12
2021/11/17 18:49:40;;;;;;;2.20;2.10;;;;;;;;;;7334473;19;162458;-12
2021/11/17 18:52:11;;;;;;;2.20;2.10;;;;;;;;;;7335069;19;154023;-12
2021/11/17 18:54:44;;;;;;;2.00;1.90;;;;;;;;;;7334025;19;153543;-14
2021/11/17 18:57:19;;;;;;;2.10;2.00;;;;;;;;;;7334388;19;161845;-14
2021/11/17 18:59:50;;;;;;;1.88;1.77;;;;;;;;;;7334099;19;162520;-13
2021/11/17 19:02:34;;;;;;;1.88;1.77;;;;;;;;;;7334790;19;154002;-13
2021/11/17 19:05:10;;;;;;;1.77;1.67;;;;;;;;;;7334462;19;153526;-13
2021/11/17 19:07:42;;;;;;;2.10;2.00;;;;;;;;;;7333186;19;161958;-14
2021/11/17 19:10:17;;;;;;;2.00;1.90;;;;;;;;;;7334238;19;162723;-13
2021/11/17 19:12:48;;;;;;;2.00;1.90;;;;;;;;;;7334476;19;154146;-14
2021/11/17 19:15:19;;;;;;;2.00;1.90;;;;;;;;;;7333448;19;153540;-12
2021/11/17 19:17:52;;;;;;;1.90;1.80;;;;;;;;;;7333939;19;162417;-13
2021/11/17 19:20:24;;;;;;;1.90;1.80;;;;;;;;;;7331842;19;162414;-12
2021/11/17 19:22:56;;;;;;;2.10;2.00;;;;;;;;;;7333885;19;154026;-13
2021/11/17 19:25:29;;;;;;;2.10;2.00;;;;;;;;;;7333780;19;153704;-13
2021/11/17 19:28:00;;;;;;;;;;;;;;;;;;7334053;19;162148;-13
2021/11/17 19:30:34;;;;;;;1.63;1.52;;;;;;;;;;7331931;19;162749;-13
2021/11/17 19:33:09;;;;;;;1.60;1.50;;;;;;;;;;7333398;19;154333;-15
2021/11/17 19:35:41;;;;;;;1.20;1.20;;;;;;;;;;7333927;19;153511;-13
2021/11/17 19:38:19;;;;;;;1.10;1.10;;;;;;;;;;7328660;19;161872;-13
2021/11/17 19:40:54;;;;;;;1.83;1.30;;;;;;;;;;7329442;19;162425;-14
2021/11/17 19:43:26;;;;;;;1.30;1.20;;;;;;;;;;7332760;19;154457;-15
2021/11/17 19:45:59;;;;;;;1.35;1.00;;;;;;;;;;7333939;19;153716;-14
2021/11/17 19:48:33;;;;;;;0.98;0.98;;;;;;;;;;7336175;19;161631;-15
2021/11/17 19:51:04;;;;;;;0.90;0.90;;;;;;;;;;7332892;19;162379;-13
2021/11/17 19:53:36;;;;;;;1.00;1.00;;;;;;;;;;7334344;19;154144;-14
2021/11/17 19:56:09;;;;;;;1.03;1.03;;;;;;;;;;7331327;19;153871;-13
2021/11/17 19:58:40;;;;;;;1.33;1.20;;;;;;;;;;7332647;19;161785;-13
2021/11/17 20:01:12;;;;;;;0.93;0.93;;;;;;;;;;7335135;19;162318;-12
2021/11/17 20:03:46;;;;;;;1.10;1.00;;;;;;;;;;7336243;19;154289;-12
2021/11/17 20:06:18;;;;;;;1.00;1.00;;;;;;;;;;7333634;19;153683;-15
2021/11/17 20:08:52;;;;;;;1.00;0.90;;;;;;;;;;7335964;19;161961;-13
2021/11/17 20:11:24;;;;;;;0.90;0.90;;;;;;;;;;7335498;19;162703;-13
2021/11/17 20:13:57;;;;;;;0.95;0.95;;;;;;;;;;7335643;19;154041;-13
2021/11/17 20:16:30;;;;;;;1.00;1.00;;;;;;;;;;7331812;19;153502;-12
2021/11/17 20:19:05;;;;;;;0.90;0.90;;;;;;;;;;7332618;19;161665;-14
2021/11/17 20:21:39;;;;;;;0.90;0.90;;;;;;;;;;7334295;19;162531;-14
2021/11/17 20:24:14;;;;;;;0.90;0.90;;;;;;;;;;7333993;19;153955;-16
2021/11/17 20:26:46;;;;;;;0.80;0.80;;;;;;;;;;7334799;19;153577;-12
2021/11/17 20:29:19;;;;;;;0.75;0.75;;;;;;;;;;7333837;19;161845;-14
2021/11/17 20:31:51;;;;;;;0.80;0.80;;;;;;;;;;7333232;19;162485;-12
2021/11/17 20:34:26;;;;;;;0.70;0.70;;;;;;;;;;7333644;19;153905;-15
2021/11/17 20:36:58;;;;;;;0.88;0.88;;;;;;;;;;7332902;19;153829;-13
2021/11/17 20:39:29;;;;;;;0.90;0.90;;;;;;;;;;7332534;19;162094;-14
2021/11/17 20:42:00;;;;;;;0.90;0.90;;;;;;;;;;7332970;19;162415;-13
2021/11/17 20:44:32;;;;;;;0.68;0.68;;;;;;;;;;7333344;19;154425;-13
2021/11/17 20:47:04;;;;;;;0.80;0.80;;;;;;;;;;7332647;19;153495;-14
2021/11/17 20:49:38;;;;;;;0.77;0.77;;;;;;;;;;7333261;19;161848;-13
2021/11/17 20:52:09;;;;;;;0.70;0.70;;;;;;;;;;7333106;19;162410;-14
2021/11/17 20:54:41;;;;;;;0.70;0.70;;;;;;;;;;7330549;19;154023;-14
2021/11/17 20:57:14;;;;;;;0.68;0.68;;;;;;;;;;7331528;19;153530;-14
2021/11/17 20:59:45;;;;;;;0.70;0.70;;;;;;;;;;7333366;19;161942;-13
2021/11/17 21:02:17;;;;;;;0.80;0.80;;;;;;;;;;7332981;19;162771;-15
2021/11/17 21:04:51;;;;;;;0.80;0.80;;;;;;;;;;7329800;19;154097;-14
2021/11/17 21:07:22;;;;;;;0.70;0.70;;;;;;;;;;7330438;19;153589;-13
2021/11/17 21:09:53;;;;;;;0.70;0.70;;;;;;;;;;7328730;19;162142;-13
2021/11/17 21:12:25;;;;;;;0.60;0.60;;;;;;;;;;7335160;19;162482;-14
2021/11/17 21:14:56;;;;;;;1.05;0.80;;;;;;;;;;7335277;19;154030;-15
2021/11/17 21:17:27;;;;;;;0.68;0.68;;;;;;;;;;7327061;19;153638;-14
2021/11/17 21:20:01;;;;;;;2.45;1.00;;;;;;;;;;7331102;19;161848;-14
2021/11/17 21:22:33;;;;;;;0.60;0.60;;;;;;;;;;7334381;19;162411;-12
2021/11/17 21:25:06;;;;;;;0.70;0.70;;;;;;;;;;7330406;19;154064;-15
2021/11/17 21:27:38;;;;;;;0.70;0.70;;;;;;;;;;7328884;19;154135;-14
2021/11/17 21:30:12;;;;;;;0.65;0.65;;;;;;;;;;7334321;19;162105;-14
2021/11/17 21:32:44;;;;;;;0.60;0.60;;;;;;;;;;7333613;19;162688;-13
2021/11/17 21:35:21;;;;;;;0.80;0.80;;;;;;;;;;7330295;19;154101;-15
2021/11/17 21:37:53;;;;;;;0.60;0.60;;;;;;;;;;7328069;19;153673;-13
2021/11/17 21:40:26;;;;;;;0.63;0.63;;;;;;;;;;7331998;19;161922;-15
2021/11/17 21:42:57;;;;;;;;;;;;;;;;;;7331786;19;162644;-15
2021/11/17 21:45:31;;;;;;;0.50;0.50;;;;;;;;;;7328829;19;154333;-15
2021/11/17 21:48:02;;;;;;;0.80;0.80;;;;;;;;;;7332221;19;153531;-13
2021/11/17 21:50:38;;;;;;;0.60;0.60;;;;;;;;;;7329332;19;161848;-14
2021/11/17 21:53:09;;;;;;;0.60;0.60;;;;;;;;;;7327199;19;162598;-13
2021/11/17 21:55:41;;;;;;;0.90;0.90;;;;;;;;;;7329085;19;154014;-13
2021/11/17 21:58:21;;;;;;;0.70;0.70;;;;;;;;;;7328470;19;153690;-12
2021/11/17 22:00:54;;;;;;;0.60;0.60;;;;;;;;;;7329948;19;161950;-15
2021/11/17 22:03:26;;;;;;;0.77;0.73;;;;;;;;;;7332287;19;162995;-13
2021/11/17 22:06:00;;;;;;;0.68;0.60;;;;;;;;;;7331704;19;153972;-12
2021/11/17 22:08:31;;;;;;;1.05;0.60;;;;;;;;;;7332307;19;153334;-14
2021/11/17 22:11:05;;;;;;;0.63;0.63;;;;;;;;;;7332817;19;162054;-13
2021/11/17 22:13:40;;;;;;;0.55;0.55;;;;;;;;;;7330743;19;162363;-14
2021/11/17 22:16:13;;;;;;;0.90;0.90;;;;;;;;;;7329303;19;153973;-14
2021/11/17 22:18:44;;;;;;;0.73;0.63;;;;;;;;;;7326385;19;153575;-13
2021/11/17 22:21:22;;;;;;;0.60;0.60;;;;;;;;;;7330252;19;162304;-13
2021/11/17 22:23:53;;;;;;;0.60;0.60;;;;;;;;;;7331348;19;162659;-13
2021/11/17 22:26:25;;;;;;;0.60;0.60;;;;;;;;;;7331783;19;154018;-13
2021/11/17 22:28:57;;;;;;;0.60;0.60;;;;;;;;;;7330126;19;153603;-12
2021/11/17 22:31:30;;;;;;;0.63;0.63;;;;;;;;;;7330017;19;162088;-13
2021/11/17 22:34:01;;;;;;;0.50;0.50;;;;;;;;;;7331251;19;162341;-13
2021/11/17 22:36:35;;;;;;;0.55;0.55;;;;;;;;;;7331504;19;154062;-14
2021/11/17 22:39:09;;;;;;;0.60;0.60;;;;;;;;;;7328622;19;153541;-14
2021/11/17 22:41:40;;;;;;;0.65;0.55;;;;;;;;;;7331186;19;161862;-14
2021/11/17 22:44:12;;;;;;;0.70;0.60;;;;;;;;;;7331062;19;162381;-15
2021/11/17 22:46:43;;;;;;;1.65;0.68;;;;;;;;;;7331065;19;154112;-14
2021/11/17 22:49:15;;;;;;;0.70;0.70;;;;;;;;;;7331283;19;153467;-13
2021/11/17 22:51:49;;;;;;;0.70;0.70;;;;;;;;;;7330677;19;161903;-13
2021/11/17 22:54:20;;;;;;;0.50;0.50;;;;;;;;;;7328382;19;162499;-15
2021/11/17 22:56:51;;;;;;;0.50;0.50;;;;;;;;;;7329776;19;154162;-16
2021/11/17 22:59:23;;;;;;;0.50;0.50;;;;;;;;;;7328574;19;153576;-13
2021/11/17 23:01:54;;;;;;;0.50;0.50;;;;;;;;;;7329569;19;161964;-14
2021/11/17 23:04:26;;;;;;;0.50;0.50;;;;;;;;;;7330398;19;162594;-14
2021/11/17 23:07:00;;;;;;;0.60;0.60;;;;;;;;;;7331031;19;154161;-15
2021/11/17 23:09:32;;;;;;;0.57;0.57;;;;;;;;;;7329359;19;153541;-13
2021/11/17 23:12:18;;;;;;;0.60;0.60;;;;;;;;;;7329932;19;162159;-14
2021/11/17 23:14:50;;;;;;;0.88;0.60;;;;;;;;;;7329115;19;162478;-14
2021/11/17 23:17:21;;;;;;;0.50;0.50;;;;;;;;;;7333187;19;153965;-15
2021/11/17 23:19:53;;;;;;;0.50;0.50;;;;;;;;;;7336605;19;153690;-14
2021/11/17 23:22:27;;;;;;;0.70;0.70;;;;;;;;;;7337106;19;161848;-13
2021/11/17 23:24:58;;;;;;;0.70;0.70;;;;;;;;;;7336586;19;162397;-15
2021/11/17 23:27:30;;;;;;;0.68;0.68;;;;;;;;;;7337454;19;154061;-13
2021/11/17 23:30:02;;;;;;;0.70;0.70;;;;;;;;;;7337058;19;153457;-14
2021/11/17 23:32:34;;;;;;;0.60;0.60;;;;;;;;;;7336693;19;162102;-14
2021/11/17 23:35:06;;;;;;;0.60;0.60;;;;;;;;;;7336936;19;162296;-14
2021/11/17 23:37:41;;;;;;;0.50;0.50;;;;;;;;;;7336190;19;154661;-14
2021/11/17 23:40:17;;;;;;;0.60;0.60;;;;;;;;;;7336375;19;153517;-14
2021/11/17 23:42:50;;;;;;;0.60;0.60;;;;;;;;;;7336357;19;161854;-13
2021/11/17 23:45:23;;;;;;;1.45;0.70;;;;;;;;;;7336323;19;162391;-16
2021/11/17 23:47:55;;;;;;;0.82;0.43;;;;;;;;;;7336332;19;154120;-15
2021/11/17 23:50:30;;;;;;;0.50;0.50;;;;;;;;;;7336219;19;153674;-15
2021/11/17 23:53:05;;;;;;;0.60;0.60;;;;;;;;;;7334965;19;162954;-13
2021/11/17 23:55:37;;;;;;;0.50;0.50;;;;;;;;;;7332781;19;162483;-16
2021/11/17 23:58:09;;;;;;;1.00;0.60;;;;;;;;;;7332943;19;154061;-15
